Time;durP1;ratioP1;P1;durP2;ratioP2;P2;SDS_P1;SDS_P2;PMS_P1;PMS_P2;Temp;Humidity;BMP_temperature;BMP_pressure;BME280_temperature;BME280_humidity;BME280_pressure;Samples;Min_cycle;Max_cycle;Signal;HPM_P1;HPM_P2
2022/06/29 00:01:52;;;;;;;5.47;2.85;;;;;;;17.20;65.03;101574.91;5006713;28;20076;-66
2022/06/29 00:04:18;;;;;;;5.22;2.70;;;;;;;17.20;64.70;101580.16;5007060;28;20040;-66
2022/06/29 00:06:44;;;;;;;4.80;2.53;;;;;;;17.25;64.75;101570.03;5004065;28;20141;-66
2022/06/29 00:09:09;;;;;;;6.53;2.78;;;;;;;17.11;64.08;101549.59;4996208;28;20064;-66
2022/06/29 00:11:35;;;;;;;6.15;3.08;;;;;;;17.14;64.66;101562.41;4993183;28;20026;-66
2022/06/29 00:14:00;;;;;;;5.78;2.90;;;;;;;17.20;64.31;101564.41;5008151;28;20068;-66
2022/06/29 00:16:26;;;;;;;5.15;3.17;;;;;;;17.08;65.32;101555.13;4999590;28;20029;-66
2022/06/29 00:18:51;;;;;;;5.45;2.90;;;;;;;17.12;64.92;101562.56;4994638;28;20029;-67
2022/06/29 00:21:16;;;;;;;4.53;2.83;;;;;;;17.05;64.96;101560.69;4999255;28;20062;-66
2022/06/29 00:23:42;;;;;;;5.32;2.75;;;;;;;17.04;65.17;101559.03;5000533;28;20069;-67
2022/06/29 00:26:07;;;;;;;4.93;2.72;;;;;;;17.07;65.58;101553.50;4999903;28;20057;-66
2022/06/29 00:28:32;;;;;;;5.55;3.05;;;;;;;17.01;65.52;101548.84;5004388;28;20060;-66
2022/06/29 00:30:58;;;;;;;5.68;3.25;;;;;;;16.98;65.57;101560.47;5003753;28;20057;-66
2022/06/29 00:33:24;;;;;;;7.93;3.58;;;;;;;17.01;65.60;101559.34;4991572;28;20120;-66
2022/06/29 00:35:49;;;;;;;6.97;3.40;;;;;;;16.96;66.03;101552.72;4992866;28;20029;-66
2022/06/29 00:38:15;;;;;;;5.18;3.17;;;;;;;16.91;65.95;101549.72;4993874;28;20343;-68
2022/06/29 00:40:40;;;;;;;5.82;3.28;;;;;;;16.92;65.83;101554.03;5005483;28;20087;-66
2022/06/29 00:43:06;;;;;;;6.47;3.40;;;;;;;16.87;65.91;101548.41;5004654;28;20018;-67
2022/06/29 00:45:31;;;;;;;6.85;3.38;;;;;;;16.76;66.05;101546.00;4997389;28;20463;-66
2022/06/29 00:47:57;;;;;;;5.95;3.20;;;;;;;16.84;65.59;101543.44;4989111;28;20030;-66
2022/06/29 00:50:28;;;;;;;6.10;3.50;;;;;;;16.70;66.17;101547.41;4996837;28;20026;-66
2022/06/29 00:52:59;;;;;;;7.25;3.38;;;;;;;16.73;66.20;101538.41;4987322;28;20117;-66
2022/06/29 00:55:29;;;;;;;5.85;3.45;;;;;;;16.66;66.70;101550.44;5001398;28;20092;-66
2022/06/29 00:57:57;;;;;;;6.35;3.50;;;;;;;16.71;66.28;101540.38;4998565;28;20616;-66
2022/06/29 01:00:22;;;;;;;;;;;;;;;16.89;65.18;101543.81;5000327;28;20127;-66
2022/06/29 01:02:48;;;;;;;5.80;3.63;;;;;;;16.69;66.68;101534.44;4995808;28;20343;-66
2022/06/29 01:05:14;;;;;;;5.82;3.63;;;;;;;16.63;66.20;101527.13;5005193;28;20026;-68
2022/06/29 01:07:39;;;;;;;5.75;3.60;;;;;;;16.61;66.70;101523.84;4997379;28;20494;-67
2022/06/29 01:10:06;;;;;;;7.70;4.30;;;;;;;16.55;67.30;101524.44;4994490;28;20063;-67
2022/06/29 01:12:31;;;;;;;5.93;3.80;;;;;;;16.56;67.20;101529.53;5006282;28;20390;-66
2022/06/29 01:14:56;;;;;;;6.50;3.80;;;;;;;16.48;67.30;101520.78;5001034;28;20026;-66
2022/06/29 01:17:22;;;;;;;5.75;4.07;;;;;;;16.49;67.34;101525.03;5007788;28;20075;-66
2022/06/29 01:19:48;;;;;;;7.10;3.83;;;;;;;16.47;67.39;101519.94;5003607;28;20044;-66
2022/06/29 01:22:14;;;;;;;6.95;3.72;;;;;;;16.42;67.21;101515.16;4996840;28;20546;-67
2022/06/29 01:24:44;;;;;;;7.60;4.10;;;;;;;16.30;67.80;101521.56;5003688;28;20026;-66
2022/06/29 01:27:10;;;;;;;7.53;4.10;;;;;;;16.40;67.18;101524.94;4988487;28;20049;-66
2022/06/29 01:29:35;;;;;;;6.40;4.10;;;;;;;16.34;68.28;101520.28;4999890;28;20443;-67
2022/06/29 01:32:01;;;;;;;5.75;4.10;;;;;;;16.35;67.76;101526.34;4987120;28;20053;-67
2022/06/29 01:34:28;;;;;;;6.00;3.92;;;;;;;16.35;68.11;101521.94;4993915;28;20029;-67
2022/06/29 01:36:54;;;;;;;6.68;4.20;;;;;;;16.23;67.89;101517.03;5004590;28;20026;-66
2022/06/29 01:39:20;;;;;;;6.28;4.30;;;;;;;16.20;67.15;101497.22;5005133;28;20057;-66
2022/06/29 01:41:46;;;;;;;8.18;4.03;;;;;;;16.25;67.72;101515.91;5003729;28;20072;-66
2022/06/29 01:44:11;;;;;;;7.25;4.30;;;;;;;16.27;67.36;101513.97;5006054;28;20537;-66
2022/06/29 01:46:37;;;;;;;5.85;4.20;;;;;;;16.16;67.42;101507.13;5004821;28;20029;-67
2022/06/29 01:49:02;;;;;;;8.80;4.30;;;;;;;16.25;67.65;101510.69;5000232;28;20092;-67
2022/06/29 01:51:28;;;;;;;8.07;4.53;;;;;;;16.25;66.81;101505.44;4987192;28;20502;-66
2022/06/29 01:53:54;;;;;;;7.63;4.43;;;;;;;16.24;67.52;101498.56;5002014;28;20042;-66
2022/06/29 01:56:19;;;;;;;7.75;4.60;;;;;;;16.10;67.95;101509.50;5005234;28;20030;-66
2022/06/29 01:58:45;;;;;;;5.57;4.28;;;;;;;16.13;67.94;101506.63;5004784;28;20029;-66
2022/06/29 02:01:12;;;;;;;7.57;4.80;;;;;;;16.08;67.63;101508.84;5002283;28;20387;-67
2022/06/29 02:03:37;;;;;;;7.53;4.70;;;;;;;16.09;67.84;101510.47;4998125;28;20056;-68
2022/06/29 02:06:03;;;;;;;5.63;4.53;;;;;;;16.08;67.87;101503.59;5003785;28;20444;-66
2022/06/29 02:08:28;;;;;;;6.50;4.60;;;;;;;16.03;67.97;101506.66;5005073;28;20042;-66
2022/06/29 02:10:54;;;;;;;6.70;4.85;;;;;;;16.00;67.46;101498.25;4997086;28;20869;-67
2022/06/29 02:13:20;;;;;;;5.85;4.70;;;;;;;15.91;68.68;101492.09;4986854;28;20054;-66
2022/06/29 02:15:45;;;;;;;6.10;4.60;;;;;;;16.00;68.10;101498.25;5001128;28;20053;-66
2022/06/29 02:18:11;;;;;;;6.65;4.72;;;;;;;15.89;68.63;101494.06;5000996;28;20493;-66
2022/06/29 02:20:36;;;;;;;7.82;5.05;;;;;;;15.79;68.75;101467.91;5001987;28;20136;-66
2022/06/29 02:23:02;;;;;;;6.50;4.68;;;;;;;15.81;69.08;101486.91;5003255;28;20490;-66
2022/06/29 02:25:27;;;;;;;6.50;4.55;;;;;;;15.96;68.04;101483.84;5005201;28;20474;-67
2022/06/29 02:27:52;;;;;;;7.28;4.95;;;;;;;15.84;69.21;101486.63;5001966;28;20030;-67
2022/06/29 02:30:18;;;;;;;7.53;5.40;;;;;;;15.91;68.62;101485.06;4986606;28;20113;-67
2022/06/29 02:35:29;;;;;;;6.78;4.97;;;;;;;15.80;69.00;101485.25;5001183;28;20041;-66
2022/06/29 02:37:55;;;;;;;7.78;5.00;;;;;;;15.83;68.17;101478.94;4999199;28;20061;-66
2022/06/29 02:40:21;;;;;;;5.55;4.72;;;;;;;15.85;68.91;101482.22;4992820;28;20473;-66
2022/06/29 02:42:46;;;;;;;5.75;4.90;;;;;;;15.70;68.99;101468.75;5005999;28;20018;-66
2022/06/29 02:45:12;;;;;;;8.65;5.40;;;;;;;15.78;69.11;101474.13;5003461;28;20026;-66
2022/06/29 02:47:37;;;;;;;6.93;5.50;;;;;;;15.70;69.67;101471.38;4995403;28;20037;-66
2022/06/29 02:50:03;;;;;;;9.25;5.53;;;;;;;15.81;68.70;101473.00;5001615;28;20413;-66
2022/06/29 02:52:28;;;;;;;6.53;4.82;;;;;;;15.79;68.58;101478.38;5006159;28;20040;-66
2022/06/29 02:54:54;;;;;;;6.95;4.95;;;;;;;15.79;68.72;101483.59;5007404;28;20026;-66
2022/06/29 02:57:20;;;;;;;7.13;4.90;;;;;;;15.81;68.92;101471.19;5010005;28;20480;-66
2022/06/29 02:59:46;;;;;;;7.93;5.18;;;;;;;15.78;69.04;101474.13;4997323;28;20037;-66
2022/06/29 03:02:11;;;;;;;7.68;5.30;;;;;;;15.71;68.84;101459.94;5006203;28;20021;-66
2022/06/29 03:04:36;;;;;;;6.57;5.07;;;;;;;15.73;69.07;101463.25;5002236;28;20030;-66
2022/06/29 03:07:02;;;;;;;5.80;5.20;;;;;;;15.76;68.92;101452.50;5001092;28;20057;-67
2022/06/29 03:09:28;;;;;;;8.27;5.38;;;;;;;15.71;69.23;101459.94;4992989;28;20497;-66
2022/06/29 03:11:53;;;;;;;6.35;5.43;;;;;;;15.70;69.10;101457.47;5007581;28;20033;-66
2022/06/29 03:14:19;;;;;;;8.15;5.68;;;;;;;15.62;69.30;101455.56;5007671;28;20036;-68
2022/06/29 03:16:44;;;;;;;7.57;5.47;;;;;;;15.71;68.98;101464.34;5001008;28;20355;-66
2022/06/29 03:19:09;;;;;;;7.00;5.55;;;;;;;15.65;69.82;101455.28;5001678;28;20026;-66
2022/06/29 03:21:35;;;;;;;7.90;5.20;;;;;;;15.66;69.76;101455.16;4995702;28;20021;-68
2022/06/29 03:24:03;;;;;;;7.25;5.70;;;;;;;15.61;70.25;101448.69;5009317;28;20538;-66
2022/06/29 03:26:29;;;;;;;;;;;;;;;15.83;68.58;101447.53;5005514;28;21251;-66
2022/06/29 03:28:54;;;;;;;6.90;5.30;;;;;;;15.62;69.53;101438.09;4999351;28;19952;-67
2022/06/29 03:31:20;;;;;;;6.93;4.68;;;;;;;15.57;69.51;101442.91;4989971;28;20022;-66
2022/06/29 03:33:46;;;;;;;5.90;5.00;;;;;;;15.62;69.95;101445.09;4990570;28;20504;-66
2022/06/29 03:36:11;;;;;;;6.50;5.32;;;;;;;15.51;70.41;101443.47;5003376;28;20018;-66
2022/06/29 03:38:37;;;;;;;7.35;5.30;;;;;;;15.56;70.77;101445.66;4995518;28;20072;-66
2022/06/29 03:41:02;;;;;;;6.45;4.93;;;;;;;15.54;70.87;101443.22;5009521;28;20369;-67
2022/06/29 03:43:28;;;;;;;7.55;5.18;;;;;;;15.51;71.22;101437.44;5006663;28;20034;-67
2022/06/29 03:45:53;;;;;;;7.90;5.07;;;;;;;15.48;70.31;101428.06;4998248;28;20081;-66
2022/06/29 03:48:19;;;;;;;5.72;4.80;;;;;;;15.49;70.44;101426.28;4999198;28;20044;-66
2022/06/29 03:50:44;;;;;;;6.78;5.05;;;;;;;15.53;70.12;101435.47;4998693;28;20117;-66
2022/06/29 03:53:10;;;;;;;5.35;4.50;;;;;;;15.46;70.16;101410.88;4989876;28;20018;-66
2022/06/29 03:55:35;;;;;;;7.70;5.07;;;;;;;15.51;70.10;101432.19;5004238;28;20026;-66
2022/06/29 03:58:00;;;;;;;7.07;4.93;;;;;;;15.52;70.46;101433.84;4989668;28;20041;-66
2022/06/29 04:00:26;;;;;;;6.90;4.57;;;;;;;15.41;70.22;101406.91;5017430;28;20026;-66
2022/06/29 04:02:51;;;;;;;6.00;4.68;;;;;;;15.53;70.91;101430.25;4991001;28;20060;-66
2022/06/29 04:05:16;;;;;;;8.13;4.97;;;;;;;15.46;71.86;101431.78;4993678;28;20036;-66
2022/06/29 04:07:42;;;;;;;7.13;5.60;;;;;;;15.47;71.16;101436.06;4992796;28;20458;-66
2022/06/29 04:10:08;;;;;;;6.72;5.47;;;;;;;15.49;71.07;101428.91;4992389;28;20041;-66
2022/06/29 04:12:35;;;;;;;7.50;5.30;;;;;;;15.43;70.95;101429.47;4992742;28;20034;-66
2022/06/29 04:15:03;;;;;;;6.03;5.18;;;;;;;15.52;70.87;101428.59;4990079;28;20026;-66
2022/06/29 04:17:28;;;;;;;5.93;5.17;;;;;;;15.51;70.92;101421.75;4993217;28;20501;-66
2022/06/29 04:19:54;;;;;;;6.32;5.05;;;;;;;15.55;70.86;101423.09;4998102;28;20034;-66
2022/06/29 04:22:20;;;;;;;7.25;5.75;;;;;;;15.52;70.97;101418.16;4990906;28;20046;-66
2022/06/29 04:24:46;;;;;;;8.77;5.45;;;;;;;15.54;70.74;101421.44;4992958;28;20021;-66
2022/06/29 04:27:12;;;;;;;7.30;4.90;;;;;;;15.59;70.75;101429.69;4993201;28;20022;-66
2022/06/29 04:29:37;;;;;;;6.22;5.20;;;;;;;15.56;70.76;101419.53;4995146;28;20038;-66
2022/06/29 04:32:03;;;;;;;6.93;5.07;;;;;;;15.61;70.29;101418.13;4991776;28;20508;-66
2022/06/29 04:34:29;;;;;;;6.97;5.18;;;;;;;15.63;71.21;101420.63;4988346;28;20034;-67
2022/06/29 04:36:55;;;;;;;6.07;5.20;;;;;;;15.68;71.42;101418.41;4990228;28;20093;-66
2022/06/29 04:39:22;;;;;;;6.88;5.10;;;;;;;15.76;71.12;101410.66;4994544;28;20045;-67
2022/06/29 04:41:47;;;;;;;7.38;5.35;;;;;;;15.71;71.00;101418.09;4993000;28;20026;-65
2022/06/29 04:44:13;;;;;;;7.22;5.28;;;;;;;15.80;70.70;101419.03;4998133;28;20052;-66
2022/06/29 04:46:38;;;;;;;6.25;4.70;;;;;;;15.82;70.75;101415.31;5000698;28;20042;-66
2022/06/29 04:49:04;;;;;;;8.38;4.88;;;;;;;15.82;71.29;101404.84;4999816;28;20416;-68
2022/06/29 04:51:31;;;;;;;6.47;4.97;;;;;;;15.87;71.21;101401.78;5005661;28;20485;-66
2022/06/29 04:53:58;;;;;;;6.88;5.20;;;;;;;15.85;72.20;101406.34;5022304;28;20065;-66
2022/06/29 04:56:32;;;;;;;8.02;5.93;;;;;;;15.88;71.91;101399.03;4989091;28;20034;-66
2022/06/29 04:58:59;;;;;;;8.20;5.75;;;;;;;15.87;72.21;101407.84;4997483;28;20026;-66
2022/06/29 05:01:26;;;;;;;6.95;5.63;;;;;;;15.92;72.33;101405.63;4999744;28;20033;-67
2022/06/29 05:03:53;;;;;;;7.72;5.93;;;;;;;15.82;72.52;101399.59;4999231;28;20053;-67
2022/06/29 05:06:20;;;;;;;7.70;5.72;;;;;;;15.96;72.33;101406.16;4996727;28;20037;-66
2022/06/29 05:08:46;;;;;;;6.72;6.00;;;;;;;15.87;72.99;101386.09;4998571;28;20038;-66
2022/06/29 05:11:14;;;;;;;8.77;5.90;;;;;;;16.08;73.67;101404.16;5000466;28;20028;-66
2022/06/29 05:13:40;;;;;;;8.43;6.07;;;;;;;16.07;73.76;101392.06;4987439;28;20037;-67
2022/06/29 05:16:06;;;;;;;7.18;5.85;;;;;;;16.24;73.07;101399.13;4998377;28;20056;-66
2022/06/29 05:18:33;;;;;;;9.15;5.90;;;;;;;16.29;73.24;101407.34;4997825;28;20026;-66
2022/06/29 05:20:59;;;;;;;6.93;5.50;;;;;;;16.36;72.37;101395.31;4999977;28;20462;-66
2022/06/29 05:23:25;;;;;;;8.65;5.97;;;;;;;16.36;72.71;101382.22;4999794;28;20053;-67
2022/06/29 05:25:51;;;;;;;7.18;5.22;;;;;;;16.40;71.98;101378.34;5003750;28;20049;-67
2022/06/29 05:28:16;;;;;;;7.57;5.57;;;;;;;16.52;72.12;101391.19;5000056;28;20513;-67
2022/06/29 05:30:42;;;;;;;9.38;5.95;;;;;;;16.57;72.44;101388.94;4987829;28;20030;-67
2022/06/29 05:33:07;;;;;;;6.20;5.15;;;;;;;16.67;72.69;101387.06;4990071;28;20104;-66
2022/06/29 05:35:33;;;;;;;7.82;5.65;;;;;;;16.75;71.32;101397.66;5006048;28;20034;-66
2022/06/29 05:38:01;;;;;;;7.28;5.93;;;;;;;16.78;71.46;101394.72;4997384;28;20120;-66
2022/06/29 05:40:27;;;;;;;7.60;5.85;;;;;;;16.86;71.50;101394.78;5002477;28;20030;-66
2022/06/29 05:42:52;;;;;;;8.70;6.00;;;;;;;16.90;71.29;101385.63;5003274;28;20037;-67
2022/06/29 05:45:18;;;;;;;8.68;6.05;;;;;;;16.98;71.67;101388.31;5004965;28;20064;-68
2022/06/29 05:47:43;;;;;;;8.77;5.95;;;;;;;16.98;71.16;101387.50;5006426;28;20579;-67
2022/06/29 05:50:10;;;;;;;8.55;6.18;;;;;;;17.05;71.30;101387.72;5001314;28;20109;-69
2022/06/29 05:52:36;;;;;;;8.25;6.07;;;;;;;17.06;71.53;101384.13;4990585;28;20520;-68
2022/06/29 05:55:03;;;;;;;8.20;6.25;;;;;;;17.08;70.83;101377.72;4993720;28;20117;-67
2022/06/29 05:57:28;;;;;;;10.70;6.70;;;;;;;17.19;71.92;101381.91;4990272;28;20026;-66
2022/06/29 05:59:54;;;;;;;9.23;6.25;;;;;;;17.22;71.14;101378.97;4990989;28;20465;-69
2022/06/29 06:02:19;;;;;;;9.85;6.47;;;;;;;17.35;70.90;101384.63;4992281;28;20026;-67
2022/06/29 06:04:45;;;;;;;8.48;6.20;;;;;;;17.43;70.93;101387.28;5000295;28;20034;-66
2022/06/29 06:07:10;;;;;;;10.40;6.18;;;;;;;17.47;71.22;101378.13;4989200;28;20026;-69
2022/06/29 06:09:36;;;;;;;7.30;6.40;;;;;;;17.60;71.12;101388.16;4995667;28;20022;-66
2022/06/29 06:12:01;;;;;;;8.48;6.07;;;;;;;17.68;70.77;101390.84;4995214;28;20030;-67
2022/06/29 06:14:27;;;;;;;9.98;6.45;;;;;;;17.77;71.14;101389.09;4997309;28;20022;-67
2022/06/29 06:16:52;;;;;;;9.98;6.50;;;;;;;17.86;71.27;101388.16;5005907;28;20773;-67
2022/06/29 06:19:17;;;;;;;10.85;7.22;;;;;;;18.01;71.95;101391.00;4991568;28;20042;-67
2022/06/29 06:21:43;;;;;;;8.27;7.10;;;;;;;18.02;70.41;101377.72;4988095;28;20030;-67
2022/06/29 06:24:08;;;;;;;9.95;6.68;;;;;;;18.18;69.90;101395.31;4999150;28;20061;-67
2022/06/29 06:26:34;;;;;;;9.93;7.05;;;;;;;18.23;69.03;101389.56;4995368;28;20030;-66
2022/06/29 06:28:59;;;;;;;8.90;6.57;;;;;;;18.32;68.09;101385.97;4988334;28;20057;-66
2022/06/29 06:31:25;;;;;;;9.63;6.63;;;;;;;18.44;67.99;101387.28;4987944;28;20123;-67
2022/06/29 06:33:51;;;;;;;7.97;6.25;;;;;;;18.60;67.62;101385.66;4997641;28;20783;-66
2022/06/29 06:36:17;;;;;;;9.30;6.20;;;;;;;18.66;66.89;101391.09;4999665;28;20462;-66
2022/06/29 06:38:42;;;;;;;9.73;6.35;;;;;;;18.71;66.99;101383.56;5005614;28;20037;-68
2022/06/29 06:41:24;;;;;;;10.15;5.97;;;;;;;18.79;66.49;101390.63;5005876;28;20121;-66
2022/06/29 06:43:51;;;;;;;7.93;5.70;;;;;;;18.94;66.10;101394.22;4994510;28;20022;-66
2022/06/29 06:46:16;;;;;;;9.38;5.80;;;;;;;19.01;65.51;101384.69;5002753;28;20152;-68
2022/06/29 06:48:43;;;;;;;8.20;5.70;;;;;;;19.08;65.88;101383.03;5001633;28;20121;-66
2022/06/29 06:51:10;;;;;;;10.38;6.00;;;;;;;19.24;67.18;101381.34;4987477;28;20029;-67
2022/06/29 06:53:35;;;;;;;8.88;5.72;;;;;;;19.31;65.61;101379.69;4989664;28;20556;-67
2022/06/29 06:56:01;;;;;;;8.43;5.70;;;;;;;19.41;65.09;101375.06;4991541;28;20026;-67
2022/06/29 06:58:26;;;;;;;6.78;5.30;;;;;;;19.50;64.36;101374.06;4989895;28;20496;-67
2022/06/29 07:00:52;;;;;;;8.25;4.93;;;;;;;19.66;63.97;101375.81;4994903;28;20030;-70
2022/06/29 07:03:17;;;;;;;8.32;5.60;;;;;;;19.72;62.81;101371.66;5002770;28;20037;-66
2022/06/29 07:05:42;;;;;;;7.55;5.10;;;;;;;19.82;63.04;101383.63;5003512;28;20469;-67
2022/06/29 07:08:08;;;;;;;7.88;5.28;;;;;;;19.90;62.31;101385.44;4994537;28;20477;-66
2022/06/29 07:10:33;;;;;;;9.52;5.80;;;;;;;19.90;61.36;101385.44;5000403;28;20030;-69
2022/06/29 07:12:58;;;;;;;9.85;5.50;;;;;;;19.94;61.32;101381.44;4989598;28;20378;-66
2022/06/29 07:15:24;;;;;;;8.95;5.78;;;;;;;19.93;61.80;101373.72;4985084;28;20085;-67
2022/06/29 07:17:49;;;;;;;8.50;5.57;;;;;;;20.06;62.45;101374.78;4992397;28;20019;-66
2022/06/29 07:20:14;;;;;;;7.95;5.55;;;;;;;20.21;62.35;101371.41;4987610;28;20526;-69
2022/06/29 07:22:40;;;;;;;8.50;5.72;;;;;;;20.33;62.00;101372.63;4988585;28;20508;-67
2022/06/29 07:25:05;;;;;;;9.00;6.15;;;;;;;20.31;61.26;101372.00;4987502;28;20019;-67
2022/06/29 07:27:31;;;;;;;9.68;6.47;;;;;;;20.32;60.78;101373.63;5000585;28;20478;-67
2022/06/29 07:29:56;;;;;;;10.48;5.97;;;;;;;20.32;61.37;101378.91;5000937;28;20438;-67
2022/06/29 07:32:22;;;;;;;8.45;6.18;;;;;;;20.38;61.38;101378.19;4994042;28;20525;-66
2022/06/29 07:34:47;;;;;;;9.55;5.95;;;;;;;20.49;61.33;101385.72;4988200;28;20053;-67
2022/06/29 07:37:13;;;;;;;8.40;5.93;;;;;;;20.58;61.93;101382.00;4995796;28;20030;-67
2022/06/29 07:39:38;;;;;;;8.52;6.35;;;;;;;20.69;61.21;101381.59;4996177;28;20026;-70
2022/06/29 07:42:04;;;;;;;9.63;6.03;;;;;;;20.72;61.38;101374.34;5012966;28;20052;-67
2022/06/29 07:44:30;;;;;;;9.50;7.30;;;;;;;20.69;61.46;101381.59;5013943;28;20041;-66
2022/06/29 07:46:56;;;;;;;9.80;6.68;;;;;;;20.72;61.83;101382.25;5003175;28;20018;-67
2022/06/29 07:49:23;;;;;;;8.40;6.35;;;;;;;20.85;60.78;101377.19;4988862;28;20034;-66
2022/06/29 07:51:48;;;;;;;9.18;6.78;;;;;;;20.97;60.18;101367.84;4992265;28;20037;-69
2022/06/29 07:54:14;;;;;;;8.02;5.72;;;;;;;21.16;60.59;101377.88;4990507;28;20069;-67
2022/06/29 07:56:39;;;;;;;6.97;5.65;;;;;;;21.35;59.71;101381.00;4989610;28;20370;-67
2022/06/29 07:59:05;;;;;;;9.27;6.22;;;;;;;21.34;57.29;101379.38;4993307;28;20030;-67
2022/06/29 08:01:30;;;;;;;8.07;5.50;;;;;;;21.41;56.31;101375.81;4996601;28;20026;-67
2022/06/29 08:03:56;;;;;;;7.10;5.38;;;;;;;21.48;55.52;101375.88;4992031;28;20040;-67
2022/06/29 08:06:23;;;;;;;7.07;5.18;;;;;;;21.61;55.44;101380.50;4997007;28;20450;-66
2022/06/29 08:08:48;;;;;;;7.80;5.00;;;;;;;21.74;55.41;101370.94;5002030;28;20112;-67
2022/06/29 08:11:13;;;;;;;8.43;5.05;;;;;;;21.80;54.11;101366.75;5006046;28;20121;-68
2022/06/29 08:13:39;;;;;;;7.93;4.65;;;;;;;21.95;54.43;101356.13;5003192;28;20058;-66
2022/06/29 08:16:06;;;;;;;5.82;4.55;;;;;;;22.13;55.14;101364.47;4991019;28;20057;-67
2022/06/29 08:18:33;;;;;;;9.50;5.57;;;;;;;22.22;54.23;101368.63;4994397;28;20050;-69
2022/06/29 08:20:59;;;;;;;7.22;5.00;;;;;;;22.33;54.11;101358.56;4996917;28;20033;-68
2022/06/29 08:23:24;;;;;;;7.65;5.40;;;;;;;22.43;54.01;101370.47;5003039;28;20494;-67
2022/06/29 08:25:50;;;;;;;8.13;5.35;;;;;;;22.58;53.92;101366.91;5001383;28;20026;-67
2022/06/29 08:28:15;;;;;;;8.95;5.28;;;;;;;22.73;54.58;101365.00;5005214;28;20030;-67
2022/06/29 08:30:40;;;;;;;6.85;4.55;;;;;;;22.91;53.05;101361.91;4997226;28;20463;-68
2022/06/29 08:33:06;;;;;;;8.30;5.65;;;;;;;23.02;52.97;101364.03;5002923;28;20060;-67
2022/06/29 08:35:31;;;;;;;7.15;5.38;;;;;;;23.04;52.83;101362.00;5006859;28;20450;-67
2022/06/29 08:37:56;;;;;;;8.60;5.70;;;;;;;23.07;52.81;101361.63;4992735;28;20054;-66
2022/06/29 08:40:22;;;;;;;7.60;5.25;;;;;;;23.07;53.20;101361.63;4988042;28;20554;-67
2022/06/29 08:42:48;;;;;;;8.93;5.45;;;;;;;23.16;53.21;101359.63;5001431;28;20032;-67
2022/06/29 08:45:14;;;;;;;6.15;4.93;;;;;;;23.29;54.08;101363.19;4999887;28;20525;-69
2022/06/29 08:47:41;;;;;;;7.57;4.85;;;;;;;23.33;51.61;101355.63;5020466;28;20022;-67
2022/06/29 08:50:08;;;;;;;7.45;4.90;;;;;;;23.32;52.07;101349.53;4995754;28;20374;-67
2022/06/29 08:52:38;;;;;;;8.30;4.43;;;;;;;23.50;52.58;101354.28;4993908;28;20521;-67
2022/06/29 08:55:07;;;;;;;8.18;4.43;;;;;;;23.67;53.44;101360.09;5004431;28;20034;-67
2022/06/29 08:57:36;;;;;;;7.15;5.65;;;;;;;23.62;52.48;101349.28;5001461;28;20114;-67
2022/06/29 09:00:03;;;;;;;8.65;5.38;;;;;;;23.70;52.81;101346.47;4997143;28;20026;-67
2022/06/29 09:02:28;;;;;;;7.03;5.10;;;;;;;23.84;50.51;101342.81;5005435;28;20108;-67
2022/06/29 09:04:54;;;;;;;6.85;5.20;;;;;;;23.84;52.23;101345.47;4999492;28;20128;-68
2022/06/29 09:07:20;;;;;;;7.47;5.45;;;;;;;24.02;51.94;101349.38;4995914;28;20144;-67
2022/06/29 09:10:04;;;;;;;8.48;6.05;;;;;;;24.07;51.67;101354.91;5001226;28;20022;-69
2022/06/29 09:12:31;;;;;;;7.13;5.20;;;;;;;24.38;52.63;101350.91;5004365;28;20087;-67
2022/06/29 09:14:58;;;;;;;8.30;5.72;;;;;;;24.35;49.92;101352.94;5006830;28;20475;-67
2022/06/29 09:17:24;;;;;;;8.85;5.22;;;;;;;24.43;50.93;101351.09;5004920;28;20041;-67
2022/06/29 09:19:53;;;;;;;8.90;5.43;;;;;;;24.51;51.91;101349.06;4988343;28;20026;-67
2022/06/29 09:22:19;;;;;;;7.03;5.28;;;;;;;24.58;51.14;101351.72;4998472;28;20058;-67
2022/06/29 09:24:44;;;;;;;8.77;6.18;;;;;;;24.64;49.41;101346.41;4989767;28;20038;-67
2022/06/29 09:27:11;;;;;;;7.85;6.57;;;;;;;24.60;48.36;101347.00;4990905;28;20026;-67
2022/06/29 09:29:39;;;;;;;8.82;6.28;;;;;;;24.64;49.37;101354.34;4999785;28;20038;-68
2022/06/29 09:32:05;;;;;;;8.13;5.63;;;;;;;24.76;50.12;101351.91;4999356;28;20034;-67
2022/06/29 09:34:31;;;;;;;9.75;6.35;;;;;;;24.67;49.60;101353.16;5003912;28;20033;-67
2022/06/29 09:37:00;;;;;;;8.80;6.22;;;;;;;24.63;49.13;101341.31;5006196;28;20032;-67
2022/06/29 09:39:42;;;;;;;9.30;6.65;;;;;;;24.74;51.11;101343.34;4999845;28;20026;-67
2022/06/29 09:42:15;;;;;;;10.93;6.75;;;;;;;24.76;50.15;101351.91;4998612;28;20385;-67
2022/06/29 09:44:42;;;;;;;9.02;6.60;;;;;;;24.46;49.16;101340.91;4993287;28;20417;-66
2022/06/29 09:47:15;;;;;;;8.75;5.70;;;;;;;24.60;49.50;101347.00;4999518;28;20032;-67
2022/06/29 09:49:42;;;;;;;6.93;4.60;;;;;;;24.73;49.86;101347.03;5005197;28;20080;-69
2022/06/29 09:52:07;;;;;;;8.65;6.13;;;;;;;24.74;48.76;101348.66;5004646;28;20033;-70
2022/06/29 09:54:37;;;;;;;6.85;5.40;;;;;;;24.72;47.60;101348.03;5006671;28;20030;-67
2022/06/29 09:57:04;;;;;;;6.93;4.88;;;;;;;24.76;49.50;101341.28;5002807;28;20030;-67
2022/06/29 10:02:37;;;;;;;6.43;4.63;;;;;;;25.14;46.82;101344.09;5003428;28;20060;-67
2022/06/29 10:05:09;;;;;;;8.38;5.30;;;;;;;25.17;46.60;101348.16;5005753;28;20021;-68
2022/06/29 10:07:37;;;;;;;8.52;3.85;;;;;;;25.38;48.00;101339.94;5000977;28;20440;-69
2022/06/29 10:10:06;;;;;;;7.20;3.50;;;;;;;25.48;44.42;101344.81;4997343;28;20720;-66
2022/06/29 10:16:02;;;;;;;6.82;3.00;;;;;;;25.68;45.83;101334.88;4998344;28;20048;-67
2022/06/29 10:18:37;;;;;;;5.10;2.63;;;;;;;25.88;44.97;101342.78;4993066;28;20034;-68
2022/06/29 10:21:12;;;;;;;4.03;2.38;;;;;;;25.86;43.61;101331.56;4991392;28;20455;-69
2022/06/29 10:23:48;;;;;;;4.32;2.40;;;;;;;26.03;43.30;101336.34;4995683;28;20149;-68
2022/06/29 10:26:27;;;;;;;4.38;1.83;;;;;;;26.21;43.90;101333.78;4992699;28;20034;-70
2022/06/29 10:28:56;;;;;;;2.90;1.67;;;;;;;26.07;42.05;101334.91;4995573;28;20029;-69
2022/06/29 10:31:59;;;;;;;3.92;1.80;;;;;;;26.18;43.18;101339.53;4993443;28;20375;-68
2022/06/29 10:34:31;;;;;;;3.40;1.77;;;;;;;26.32;40.57;101335.72;4994554;28;20026;-68
2022/06/29 10:37:03;;;;;;;3.28;1.52;;;;;;;26.47;41.06;101333.59;4996081;28;20032;-71
2022/06/29 10:39:48;;;;;;;5.38;2.10;;;;;;;26.53;41.38;101329.25;4985668;28;20438;-70
2022/06/29 10:45:17;;;;;;;5.05;2.00;;;;;;;26.59;37.97;101324.91;5013972;28;20044;-66
2022/06/29 10:48:07;;;;;;;4.60;2.45;;;;;;;26.64;39.57;101317.06;5003566;28;20516;-66
2022/06/29 10:50:34;;;;;;;4.43;2.28;;;;;;;26.78;42.60;101318.56;4985518;28;20109;-66
2022/06/29 10:53:10;;;;;;;5.50;2.42;;;;;;;26.77;41.95;101316.94;4998560;28;20032;-65
2022/06/29 10:55:38;;;;;;;5.43;3.10;;;;;;;26.88;40.70;101318.88;4997016;28;20065;-68
2022/06/29 10:58:04;;;;;;;6.15;3.33;;;;;;;26.80;41.38;101316.50;4997312;28;20029;-66
2022/06/29 11:00:34;;;;;;;5.47;3.03;;;;;;;26.86;40.93;101310.28;4994375;28;20037;-65
2022/06/29 11:03:16;;;;;;;4.18;2.20;;;;;;;26.92;41.27;101292.63;4996825;28;20470;-66
2022/06/29 11:13:59;;;;;;;4.00;2.00;;;;;;;27.53;40.13;101283.72;4988066;28;20045;-66
2022/06/29 11:16:34;;;;;;;6.82;2.00;;;;;;;27.24;39.15;101290.63;5009073;28;20026;-66
2022/06/29 11:19:00;;;;;;;4.53;2.10;;;;;;;27.20;37.53;101284.13;5008808;28;20116;-70
2022/06/29 11:21:29;;;;;;;5.15;2.15;;;;;;;27.05;37.16;101286.31;5002286;28;20177;-65
2022/06/29 11:24:02;;;;;;;4.88;1.75;;;;;;;27.10;38.10;101291.84;4993062;28;20054;-67
2022/06/29 11:26:29;;;;;;;4.32;1.80;;;;;;;27.17;38.58;101292.56;4992323;28;20022;-65
2022/06/29 11:28:57;;;;;;;5.68;1.90;;;;;;;27.14;38.75;101280.53;4994610;28;20037;-65
2022/06/29 11:31:23;;;;;;;3.25;2.00;;;;;;;27.27;37.86;101290.19;5002237;28;20025;-65
2022/06/29 11:33:50;;;;;;;4.38;1.92;;;;;;;27.26;37.80;101288.56;5023687;28;20032;-65
2022/06/29 11:36:18;;;;;;;4.70;2.05;;;;;;;27.13;38.43;101288.75;4993174;28;20034;-66
2022/06/29 11:38:46;;;;;;;5.78;2.38;;;;;;;27.04;38.02;101285.53;5007360;28;20077;-67
2022/06/29 11:41:12;;;;;;;3.65;2.05;;;;;;;27.05;37.71;101284.47;5005468;28;20029;-66
2022/06/29 11:43:37;;;;;;;4.28;1.55;;;;;;;27.10;37.25;101283.84;4989488;28;20497;-68